Malcolm, NE (68402)

5:25 PM CST on December 09, 2016 (GMT -0600)
Oak Creek Vineyards | | Change Station

Elev 1260 ft 40.95 °N, 96.77 °W | Updated 32 seconds ago

Overcast
Overcast
21.9 °F
Feels Like 22 °F
N
0.0
Wind Variable Wind from SE
Gusts 7.0 mph

Today
High -- | Low -- °F
--% Chance of Precip.
Yesterday
High -- | Low -- °F
Precip. -- in
Pressure 30.56 in
Visibility 10.0 miles
Clouds Overcast 5000 ft
Windchill 22 °F
Dew Point 14 °F
Humidity 73%
Rainfall 0.00 in
Snow Depth Not available.
7:40 AM 4:59 PM
Waxing Gibbous, 78% visible
METAR KLNK 092254Z 12007KT 10SM OVC050 M06/M11 A3048 RMK AO2 SLP346 T10561111
Pressure 30.56 in
Visibility 10.0 miles
Clouds Overcast 5000 ft
Windchill 22 °F
Dew Point 14 °F
Humidity 73%
Rainfall 0.00 in
Snow Depth Not available.
7:40 AM 4:59 PM
Waxing Gibbous, 78% visible
METAR KLNK 092254Z 12007KT 10SM OVC050 M06/M11 A3048 RMK AO2 SLP346 T10561111

10-Day Weather Forecast

Almanac

Astronomy

Dec. 09, 2016 Rise Set
Actual Time
Civil Twilight
Nautical Twilight
Astronomical Twilight
Moon
Length of Visible Light
Length of Day
Tomorrow will be .
, % of the Moon is Illuminated

Today's Extremes

State Highs State Lows

Community

WunderPhotos

Upload Photos

1,956,535 photos uploaded!

WunderBlog® & News

Nearby

Air Quality

  Air Quality AQ Index Pollutant
Not available.

Snow Depth

Station Depth Elevation

Earthquake Activity

City Distance Mag. Time & Date
Minimum magnitude displayed is 2.5.

Coastal Water Temperatures

Place Temperature

Stations

Nearby Weather Stations

Station Location Temp. Windchill Dew Point Humidity Wind Precip. Elev Updated Type
                   

Watches & Warnings

There are currently no watches in effect.